createdAt,value
2023-03-06T00:01:00.205Z,6.40
2023-03-06T00:03:28.657Z,8.40
2023-03-06T00:05:59.007Z,6.60
2023-03-06T00:08:29.005Z,8.50
2023-03-06T00:10:57.789Z,6.30
2023-03-06T00:13:30.252Z,7.70
2023-03-06T00:16:01.166Z,7.60
2023-03-06T00:18:29.498Z,8.10
2023-03-06T00:20:57.980Z,8.20
2023-03-06T00:23:27.674Z,8.60
2023-03-06T00:25:55.973Z,7.90
2023-03-06T00:28:24.230Z,9.90
2023-03-06T00:30:52.438Z,7.30
2023-03-06T00:33:22.748Z,8.30
2023-03-06T00:35:51.063Z,8.40
2023-03-06T00:38:19.393Z,6.70
2023-03-06T00:40:47.625Z,7.00
2023-03-06T00:43:15.758Z,8.40
2023-03-06T00:45:43.985Z,7.20
2023-03-06T00:48:12.312Z,8.30
2023-03-06T00:50:40.483Z,8.40
2023-03-06T00:53:08.868Z,8.90
2023-03-06T00:55:37.487Z,7.90
2023-03-06T00:58:05.841Z,8.20
2023-03-06T01:00:34.108Z,9.20
2023-03-06T01:03:02.291Z,8.50
2023-03-06T01:05:34.460Z,9.00
2023-03-06T01:08:02.857Z,9.90
2023-03-06T01:10:31.537Z,10.40
2023-03-06T01:12:59.696Z,9.90
2023-03-06T01:15:27.731Z,9.30
2023-03-06T01:17:55.958Z,9.30
2023-03-06T01:20:24.340Z,7.60
2023-03-06T01:22:52.722Z,7.40
2023-03-06T01:25:24.588Z,7.60
2023-03-06T01:27:53.291Z,7.10
2023-03-06T01:30:21.648Z,8.10
2023-03-06T01:32:49.824Z,9.10
2023-03-06T01:35:18.287Z,7.30
2023-03-06T01:37:47.309Z,11.20
2023-03-06T01:40:15.773Z,9.40
2023-03-06T01:42:44.944Z,9.00
2023-03-06T01:45:14.459Z,8.80
2023-03-06T01:47:42.687Z,7.90
2023-03-06T01:50:11.988Z,8.80
2023-03-06T01:52:51.023Z,9.20
2023-03-06T01:55:26.871Z,9.40
2023-03-06T01:57:58.115Z,8.20
2023-03-06T02:00:29.393Z,10.00
2023-03-06T02:03:03.184Z,9.70
2023-03-06T02:05:31.561Z,7.50
2023-03-06T02:08:01.275Z,10.00
2023-03-06T02:10:30.274Z,12.20
2023-03-06T02:12:58.771Z,7.70
2023-03-06T02:15:29.392Z,10.40
2023-03-06T02:17:57.776Z,10.20
2023-03-06T02:20:43.863Z,8.60
2023-03-06T02:23:45.942Z,14.40
2023-03-06T02:26:15.654Z,9.80
2023-03-06T02:28:43.935Z,11.10
2023-03-06T02:31:23.776Z,11.00
2023-03-06T02:34:15.310Z,10.90
2023-03-06T02:36:47.892Z,10.50
2023-03-06T02:39:19.813Z,10.20
2023-03-06T02:41:48.131Z,8.70
2023-03-06T02:44:16.642Z,9.00
2023-03-06T02:46:44.794Z,10.70
2023-03-06T02:49:12.961Z,10.30
2023-03-06T02:51:41.149Z,10.10
2023-03-06T02:54:09.270Z,9.50
2023-03-06T02:56:37.470Z,8.40
2023-03-06T02:59:05.785Z,9.20
2023-03-06T03:01:35.390Z,11.20
2023-03-06T03:04:05.419Z,14.80
2023-03-06T03:06:34.446Z,12.10
2023-03-06T03:09:03.222Z,9.80
2023-03-06T03:11:31.907Z,10.10
2023-03-06T03:14:00.285Z,11.70
2023-03-06T03:16:29.085Z,10.90
2023-03-06T03:18:59.405Z,14.10
2023-03-06T03:21:27.866Z,11.90
2023-03-06T03:23:56.571Z,10.70
2023-03-06T03:26:26.177Z,11.40
2023-03-06T03:29:08.281Z,12.60
2023-03-06T03:31:37.011Z,12.60
2023-03-06T03:34:05.365Z,14.20
2023-03-06T03:36:36.331Z,13.20
2023-03-06T03:39:04.763Z,11.40
2023-03-06T03:41:33.870Z,11.30
2023-03-06T03:44:04.276Z,10.30
2023-03-06T03:46:33.510Z,10.80
2023-03-06T03:49:02.569Z,11.10
2023-03-06T03:51:31.867Z,11.70
2023-03-06T03:54:00.369Z,10.10
2023-03-06T03:56:30.993Z,11.20
2023-03-06T03:59:03.260Z,10.90
2023-03-06T04:01:39.154Z,8.30
2023-03-06T04:04:07.892Z,10.90
2023-03-06T04:06:36.681Z,11.40
2023-03-06T04:09:06.497Z,13.50
2023-03-06T04:11:36.001Z,13.00
2023-03-06T04:14:04.586Z,9.70
2023-03-06T04:16:33.025Z,11.00
2023-03-06T04:19:01.364Z,9.30
2023-03-06T04:21:29.624Z,10.30
2023-03-06T04:23:58.923Z,10.90
2023-03-06T04:26:27.301Z,10.00
2023-03-06T04:28:56.398Z,8.40
2023-03-06T04:31:25.140Z,9.20
2023-03-06T04:33:53.779Z,12.80
2023-03-06T04:36:28.630Z,9.50
2023-03-06T04:38:59.950Z,11.80
2023-03-06T04:41:28.759Z,11.70
2023-03-06T04:43:57.326Z,10.00
2023-03-06T04:46:25.592Z,7.60
2023-03-06T04:48:53.983Z,9.30
2023-03-06T04:51:22.065Z,8.20
2023-03-06T04:53:50.530Z,9.40
2023-03-06T04:56:18.952Z,10.30
2023-03-06T04:58:47.408Z,9.60
2023-03-06T05:01:15.679Z,11.80
2023-03-06T05:03:43.771Z,11.20
2023-03-06T05:06:11.871Z,11.70
2023-03-06T05:08:40.186Z,10.50
2023-03-06T05:11:08.554Z,10.50
2023-03-06T05:13:36.747Z,12.10
2023-03-06T05:16:06.535Z,10.30
2023-03-06T05:18:35.566Z,11.40
2023-03-06T05:21:04.829Z,9.80
2023-03-06T05:23:36.516Z,10.00
2023-03-06T05:26:09.976Z,10.10
2023-03-06T05:28:39.149Z,10.70
2023-03-06T05:31:08.162Z,9.70
2023-03-06T05:33:36.674Z,10.90
2023-03-06T05:36:07.493Z,10.30
2023-03-06T05:38:36.082Z,9.70
2023-03-06T05:41:05.091Z,9.20
2023-03-06T05:43:34.541Z,11.90
2023-03-06T05:46:06.225Z,10.80
2023-03-06T05:48:36.228Z,10.10
2023-03-06T05:51:05.979Z,13.70
2023-03-06T05:53:34.244Z,12.70
2023-03-06T05:56:06.297Z,10.10
2023-03-06T05:58:34.788Z,11.70
2023-03-06T06:01:12.560Z,12.30
2023-03-06T06:03:41.856Z,11.70
2023-03-06T06:06:12.810Z,11.10
2023-03-06T06:08:42.231Z,7.40
2023-03-06T06:11:12.261Z,12.30
2023-03-06T06:13:40.847Z,11.80
2023-03-06T06:16:11.870Z,12.20
2023-03-06T06:18:41.431Z,12.20
2023-03-06T06:21:12.051Z,11.00
2023-03-06T06:23:41.090Z,11.50
2023-03-06T06:26:10.819Z,9.80
2023-03-06T06:28:39.227Z,10.10
2023-03-06T06:31:09.964Z,10.90
2023-03-06T06:33:39.872Z,10.60
2023-03-06T06:36:19.719Z,9.60
2023-03-06T06:38:49.818Z,10.00
2023-03-06T06:41:51.034Z,11.30
2023-03-06T06:44:08.867Z,10.80
2023-03-06T06:49:26.733Z,9.60
2023-03-06T06:51:55.440Z,10.50
2023-03-06T06:54:23.919Z,9.30
2023-03-06T06:56:52.407Z,12.80
2023-03-06T06:59:24.015Z,10.50
2023-03-06T07:01:53.809Z,10.40
2023-03-06T07:04:22.562Z,11.40
2023-03-06T07:06:51.311Z,11.50
2023-03-06T07:09:20.394Z,10.90
2023-03-06T07:11:49.409Z,12.50
2023-03-06T07:14:18.790Z,8.90
2023-03-06T07:16:47.776Z,13.70
2023-03-06T07:19:16.363Z,12.40
2023-03-06T07:21:45.225Z,13.20
2023-03-06T07:24:14.054Z,16.80
2023-03-06T07:26:49.426Z,11.30
2023-03-06T07:29:18.297Z,13.60
2023-03-06T07:31:48.134Z,12.90
2023-03-06T07:34:16.699Z,13.20
2023-03-06T07:36:45.279Z,12.20
2023-03-06T07:39:14.043Z,16.20
2023-03-06T07:41:42.625Z,15.40
2023-03-06T07:44:11.620Z,14.60
2023-03-06T07:46:40.438Z,14.90
2023-03-06T07:49:08.996Z,15.90
2023-03-06T07:51:37.669Z,14.60
2023-03-06T07:54:06.157Z,16.10
2023-03-06T07:56:37.552Z,14.90
2023-03-06T07:59:06.376Z,17.80
2023-03-06T08:01:36.731Z,18.30
2023-03-06T08:04:06.190Z,17.10
2023-03-06T08:06:35.092Z,13.20
2023-03-06T08:09:04.270Z,17.60
2023-03-06T08:11:33.500Z,16.30
2023-03-06T08:14:02.028Z,15.80
2023-03-06T08:16:30.908Z,16.20
2023-03-06T08:18:59.559Z,15.80
2023-03-06T08:21:29.295Z,15.40
2023-03-06T08:23:58.783Z,15.60
2023-03-06T08:26:30.555Z,17.40
2023-03-06T08:29:01.444Z,16.20
2023-03-06T08:31:33.166Z,17.70
2023-03-06T08:34:07.557Z,19.30
2023-03-06T08:36:36.342Z,20.90
2023-03-06T08:39:05.509Z,16.80
2023-03-06T08:41:35.256Z,18.30
2023-03-06T08:44:05.439Z,15.00
2023-03-06T08:46:35.277Z,17.80
2023-03-06T08:49:04.139Z,20.30
2023-03-06T08:51:33.191Z,21.00
2023-03-06T08:54:01.761Z,21.10
2023-03-06T08:56:32.727Z,17.40
2023-03-06T08:59:03.999Z,19.30
2023-03-06T09:01:36.916Z,17.80
2023-03-06T09:04:08.396Z,19.80
2023-03-06T09:06:40.356Z,14.80
2023-03-06T09:09:09.656Z,19.20
2023-03-06T09:11:38.829Z,17.30
2023-03-06T09:14:07.696Z,14.30
2023-03-06T09:16:36.223Z,17.10
2023-03-06T09:19:04.891Z,14.00
2023-03-06T09:21:33.444Z,14.70
2023-03-06T09:24:02.147Z,15.20
2023-03-06T09:26:45.113Z,15.00
2023-03-06T09:29:16.705Z,15.40
2023-03-06T09:31:45.868Z,14.50
2023-03-06T09:34:14.300Z,14.30
2023-03-06T09:36:55.818Z,17.40
2023-03-06T09:39:26.354Z,17.10
2023-03-06T09:41:57.483Z,13.60
2023-03-06T09:44:30.009Z,16.20
2023-03-06T09:47:57.993Z,16.60
2023-03-06T09:50:44.826Z,14.50
2023-03-06T09:53:20.727Z,15.00
2023-03-06T09:55:58.470Z,15.90
2023-03-06T09:58:29.185Z,15.10
2023-03-06T10:01:17.636Z,12.00
2023-03-06T10:03:54.705Z,15.20
2023-03-06T10:06:32.068Z,15.00
2023-03-06T10:09:04.375Z,16.80
2023-03-06T10:11:47.948Z,14.40
2023-03-06T10:14:17.468Z,13.70
2023-03-06T10:16:47.334Z,14.50
2023-03-06T10:19:18.764Z,12.20
2023-03-06T10:21:59.555Z,16.60
2023-03-06T10:24:34.857Z,17.50
2023-03-06T10:27:47.878Z,12.60
2023-03-06T10:30:46.634Z,11.50
2023-03-06T10:33:24.020Z,12.20
2023-03-06T10:35:55.295Z,15.20
2023-03-06T10:38:26.769Z,13.20
2023-03-06T10:41:12.457Z,16.30
2023-03-06T10:43:44.026Z,14.90
2023-03-06T10:46:14.875Z,13.00
2023-03-06T10:48:43.524Z,14.40
2023-03-06T10:51:25.877Z,12.50
2023-03-06T10:54:14.569Z,12.30
2023-03-06T10:56:45.527Z,14.90
2023-03-06T10:59:20.194Z,13.10
2023-03-06T11:01:51.288Z,10.90
2023-03-06T11:04:34.945Z,10.80
2023-03-06T11:07:33.527Z,13.10
2023-03-06T11:10:18.082Z,10.70
2023-03-06T11:13:23.440Z,11.80
2023-03-06T11:16:01.989Z,11.50
2023-03-06T11:18:36.873Z,12.50
2023-03-06T11:21:24.595Z,9.20
2023-03-06T11:23:54.933Z,12.30
2023-03-06T11:26:32.718Z,10.40
2023-03-06T11:29:07.519Z,10.50
2023-03-06T11:31:43.367Z,10.20
2023-03-06T11:34:11.997Z,12.60
2023-03-06T11:37:10.680Z,10.90
2023-03-06T11:40:02.812Z,11.00
2023-03-06T11:42:53.129Z,11.60
2023-03-06T11:45:27.609Z,6.40
2023-03-06T11:48:21.104Z,11.90
2023-03-06T11:50:52.988Z,9.80
2023-03-06T11:53:28.379Z,8.80
2023-03-06T11:56:07.747Z,10.70
2023-03-06T11:58:57.531Z,10.30
2023-03-06T12:01:47.953Z,12.60
2023-03-06T12:04:39.438Z,11.20
2023-03-06T12:07:16.728Z,12.60
2023-03-06T12:09:49.813Z,12.10
2023-03-06T12:12:49.536Z,10.00
2023-03-06T12:15:26.815Z,8.70
2023-03-06T12:18:01.190Z,10.90
2023-03-06T12:20:49.990Z,12.80
2023-03-06T12:23:43.229Z,11.90
2023-03-06T12:26:26.862Z,11.70
2023-03-06T12:29:21.344Z,12.70
2023-03-06T12:32:28.460Z,12.60
2023-03-06T12:35:15.177Z,12.30
2023-03-06T12:38:08.615Z,22.90
2023-03-06T12:40:40.470Z,17.30
2023-03-06T12:43:33.951Z,30.80
2023-03-06T12:46:18.927Z,19.80
2023-03-06T12:49:11.192Z,15.80
2023-03-06T12:51:41.888Z,16.00
2023-03-06T12:54:14.354Z,14.80
2023-03-06T12:56:43.614Z,13.50
2023-03-06T12:59:48.715Z,11.70
2023-03-06T13:02:42.064Z,10.00
2023-03-06T13:05:28.974Z,9.50
2023-03-06T13:08:27.870Z,15.90
2023-03-06T13:11:34.084Z,10.60
2023-03-06T13:14:22.761Z,12.60
2023-03-06T13:16:51.569Z,12.10
2023-03-06T13:19:27.198Z,12.70
2023-03-06T13:21:55.467Z,10.60
2023-03-06T13:24:26.210Z,10.80
2023-03-06T13:27:07.296Z,7.40
2023-03-06T13:29:49.985Z,11.70
2023-03-06T13:32:28.713Z,11.80
2023-03-06T13:34:57.314Z,11.50
2023-03-06T13:37:25.630Z,8.20
2023-03-06T13:39:57.642Z,8.20
2023-03-06T13:42:36.248Z,8.40
2023-03-06T13:45:09.296Z,9.80
2023-03-06T13:48:21.402Z,7.60
2023-03-06T13:50:47.512Z,10.80
2023-03-06T13:53:51.589Z,9.00
2023-03-06T13:56:42.946Z,11.40
2023-03-06T13:59:41.751Z,11.60
2023-03-06T14:02:31.973Z,11.30
2023-03-06T14:05:02.711Z,12.00
2023-03-06T14:07:33.746Z,11.40
2023-03-06T14:10:14.284Z,10.80
2023-03-06T14:12:52.947Z,10.90
2023-03-06T14:15:53.182Z,11.90
2023-03-06T14:18:41.802Z,12.00
2023-03-06T14:21:16.087Z,14.30
2023-03-06T14:23:46.584Z,45.90
2023-03-06T14:26:22.149Z,51.00
2023-03-06T14:28:54.167Z,24.30
2023-03-06T14:31:25.629Z,21.60
2023-03-06T14:33:54.280Z,15.00
2023-03-06T14:36:31.534Z,13.40
2023-03-06T14:39:05.122Z,13.80
2023-03-06T14:41:36.263Z,10.90
2023-03-06T14:44:19.657Z,10.50
2023-03-06T14:46:55.336Z,12.60
2023-03-06T14:49:26.538Z,15.00
2023-03-06T14:52:00.722Z,14.50
2023-03-06T14:54:33.547Z,13.20
2023-03-06T14:57:06.634Z,11.30
2023-03-06T14:59:58.700Z,13.60
2023-03-06T15:02:32.974Z,18.30
2023-03-06T15:05:12.178Z,15.10
2023-03-06T15:07:45.851Z,41.00
2023-03-06T15:10:27.231Z,16.80
2023-03-06T15:12:56.392Z,14.30
2023-03-06T15:15:31.797Z,15.30
2023-03-06T15:18:00.489Z,18.50
2023-03-06T15:20:42.721Z,25.70
2023-03-06T15:23:27.224Z,19.00
2023-03-06T15:26:01.246Z,18.50
2023-03-06T15:28:39.868Z,16.20
2023-03-06T15:31:11.343Z,18.90
2023-03-06T15:33:39.848Z,18.80
2023-03-06T15:36:21.575Z,17.10
2023-03-06T15:38:50.683Z,15.00
2023-03-06T15:41:39.674Z,18.40
2023-03-06T15:44:14.548Z,20.00
2023-03-06T15:46:43.043Z,16.30
2023-03-06T15:49:18.084Z,15.60
2023-03-06T15:51:46.553Z,14.60
2023-03-06T15:54:15.028Z,43.40
2023-03-06T15:56:46.266Z,32.00
2023-03-06T15:59:24.901Z,27.10
2023-03-06T16:01:55.003Z,27.30
2023-03-06T16:04:23.519Z,21.20
2023-03-06T16:06:51.955Z,17.10
2023-03-06T16:09:20.758Z,16.10
2023-03-06T16:11:51.228Z,16.20
2023-03-06T16:14:24.292Z,14.90
2023-03-06T16:16:54.609Z,14.50
2023-03-06T16:19:27.322Z,19.30
2023-03-06T16:21:56.985Z,18.50
2023-03-06T16:24:26.585Z,27.20
2023-03-06T16:26:56.988Z,48.90
2023-03-06T16:29:27.605Z,32.20
2023-03-06T16:31:59.238Z,24.60
2023-03-06T16:34:28.056Z,25.10
2023-03-06T16:36:56.683Z,24.60
2023-03-06T16:39:26.261Z,29.00
2023-03-06T16:41:55.963Z,41.80
2023-03-06T16:44:24.451Z,35.90
2023-03-06T16:46:53.133Z,30.50
2023-03-06T16:49:24.476Z,25.50
2023-03-06T16:51:54.616Z,21.50
2023-03-06T16:54:26.563Z,18.30
2023-03-06T16:56:57.102Z,19.00
2023-03-06T16:59:27.114Z,21.20
2023-03-06T17:01:57.341Z,20.90
2023-03-06T17:04:27.104Z,21.00
2023-03-06T17:06:57.075Z,18.30
2023-03-06T17:09:27.132Z,17.80
2023-03-06T17:11:55.970Z,21.60
2023-03-06T17:14:24.567Z,19.50
2023-03-06T17:16:54.679Z,23.10
2023-03-06T17:19:23.669Z,20.00
2023-03-06T17:21:52.550Z,21.80
2023-03-06T17:24:21.659Z,18.20
2023-03-06T17:26:51.651Z,23.00
2023-03-06T17:29:20.343Z,21.30
2023-03-06T17:31:49.677Z,20.70
2023-03-06T17:34:18.854Z,20.90
2023-03-06T17:36:47.950Z,20.30
2023-03-06T17:39:16.835Z,20.90
2023-03-06T17:41:46.527Z,20.80
2023-03-06T17:44:18.200Z,18.40
2023-03-06T17:46:47.059Z,21.20
2023-03-06T17:49:19.991Z,20.20
2023-03-06T17:51:50.462Z,19.20
2023-03-06T17:54:20.535Z,20.70
2023-03-06T17:56:49.403Z,18.10
2023-03-06T17:59:18.833Z,20.50
2023-03-06T18:01:48.485Z,18.70
2023-03-06T18:04:18.222Z,21.60
2023-03-06T18:06:48.231Z,20.60
2023-03-06T18:09:17.243Z,24.30
2023-03-06T18:11:46.588Z,20.00
2023-03-06T18:14:15.549Z,22.80
2023-03-06T18:16:44.621Z,17.20
2023-03-06T18:19:13.651Z,19.20
2023-03-06T18:21:42.226Z,19.90
2023-03-06T18:24:12.537Z,24.20
2023-03-06T18:26:42.787Z,36.30
2023-03-06T18:29:11.877Z,43.60
2023-03-06T18:31:43.205Z,31.70
2023-03-06T18:34:15.806Z,27.60
2023-03-06T18:36:47.693Z,30.80
2023-03-06T18:39:16.925Z,29.40
2023-03-06T18:41:45.601Z,27.00
2023-03-06T18:44:16.539Z,26.00
2023-03-06T18:46:46.128Z,30.60
2023-03-06T18:49:16.334Z,35.60
2023-03-06T18:51:47.000Z,36.20
2023-03-06T18:54:15.850Z,31.90
2023-03-06T18:56:44.951Z,31.20
2023-03-06T18:59:18.641Z,29.30
2023-03-06T19:01:48.687Z,32.20
2023-03-06T19:04:18.137Z,28.70
2023-03-06T19:06:47.296Z,29.60
2023-03-06T19:09:16.512Z,26.50
2023-03-06T19:11:47.294Z,32.30
2023-03-06T19:14:16.461Z,38.30
2023-03-06T19:16:45.135Z,37.40
2023-03-06T19:19:14.511Z,39.50
2023-03-06T19:21:43.390Z,31.80
2023-03-06T19:24:15.761Z,26.50
2023-03-06T19:26:45.095Z,26.90
2023-03-06T19:29:14.518Z,30.10
2023-03-06T19:31:44.229Z,35.20
2023-03-06T19:34:13.430Z,70.50
2023-03-06T19:36:42.995Z,43.70
2023-03-06T19:39:13.667Z,35.20
2023-03-06T19:41:43.821Z,32.30
2023-03-06T19:44:14.907Z,30.60
2023-03-06T19:46:44.152Z,26.10
2023-03-06T19:49:18.360Z,21.70
2023-03-06T19:51:47.754Z,39.10
2023-03-06T19:54:17.652Z,36.90
2023-03-06T19:56:47.063Z,48.00
2023-03-06T19:59:16.592Z,84.30
2023-03-06T20:01:45.465Z,41.60
2023-03-06T20:04:14.932Z,34.80
2023-03-06T20:06:45.788Z,24.50
2023-03-06T20:09:14.375Z,21.70
2023-03-06T20:11:42.965Z,21.10
2023-03-06T20:14:14.770Z,22.00
2023-03-06T20:16:43.370Z,21.90
2023-03-06T20:19:12.701Z,21.50
2023-03-06T20:21:41.165Z,25.70
2023-03-06T20:24:16.871Z,22.90
2023-03-06T20:26:47.468Z,15.80
2023-03-06T20:29:16.283Z,13.50
2023-03-06T20:31:45.041Z,18.30
2023-03-06T20:34:14.506Z,17.00
2023-03-06T20:36:42.880Z,14.90
2023-03-06T20:39:15.061Z,20.00
2023-03-06T20:41:44.995Z,18.90
2023-03-06T20:44:17.372Z,20.00
2023-03-06T20:46:47.990Z,20.30
2023-03-06T20:49:16.977Z,21.10
2023-03-06T20:51:45.944Z,17.70
2023-03-06T20:54:16.894Z,20.50
2023-03-06T20:56:49.119Z,20.20
2023-03-06T20:59:19.186Z,21.10
2023-03-06T21:01:48.989Z,19.90
2023-03-06T21:04:17.794Z,18.10
2023-03-06T21:06:47.484Z,17.00
2023-03-06T21:09:17.706Z,20.50
2023-03-06T21:11:47.497Z,18.50
2023-03-06T21:14:16.975Z,18.60
2023-03-06T21:16:45.623Z,17.00
2023-03-06T21:19:14.845Z,18.40
2023-03-06T21:21:43.612Z,19.60
2023-03-06T21:24:12.337Z,20.80
2023-03-06T21:29:24.717Z,20.40
2023-03-06T21:31:54.031Z,20.60
2023-03-06T21:34:26.501Z,22.10
2023-03-06T21:36:57.046Z,22.40
2023-03-06T21:39:26.150Z,19.10
2023-03-06T21:41:54.942Z,22.80
2023-03-06T21:44:24.668Z,25.20
2023-03-06T21:46:53.636Z,25.30
2023-03-06T21:49:26.719Z,28.50
2023-03-06T21:51:58.286Z,29.70
2023-03-06T21:54:30.128Z,35.50
2023-03-06T21:56:58.689Z,30.30
2023-03-06T21:59:30.377Z,31.20
2023-03-06T22:01:59.168Z,28.80
2023-03-06T22:04:27.867Z,34.60
2023-03-06T22:06:56.943Z,36.50
2023-03-06T22:09:25.609Z,35.60
2023-03-06T22:11:54.225Z,59.40
2023-03-06T22:14:22.803Z,40.20
2023-03-06T22:16:51.639Z,27.10
2023-03-06T22:19:19.951Z,40.80
2023-03-06T22:21:48.448Z,40.90
2023-03-06T22:24:16.710Z,40.70
2023-03-06T22:26:47.145Z,47.30
2023-03-06T22:29:15.628Z,54.70
2023-03-06T22:31:44.136Z,38.10
2023-03-06T22:34:12.479Z,29.80
2023-03-06T22:36:40.646Z,46.50
2023-03-06T22:39:12.809Z,40.20
2023-03-06T22:41:45.447Z,35.70
2023-03-06T22:44:18.494Z,36.10
2023-03-06T22:46:46.763Z,28.20
2023-03-06T22:49:17.055Z,25.30
2023-03-06T22:51:45.356Z,25.20
2023-03-06T22:54:13.533Z,25.50
2023-03-06T22:56:42.155Z,23.70
2023-03-06T22:59:10.403Z,26.10
2023-03-06T23:01:38.900Z,26.40
2023-03-06T23:04:11.271Z,28.60
2023-03-06T23:06:43.058Z,25.00
2023-03-06T23:09:21.563Z,24.60
2023-03-06T23:12:09.348Z,22.40
2023-03-06T23:14:56.488Z,22.70
2023-03-06T23:17:43.493Z,24.50
2023-03-06T23:20:30.525Z,22.00
2023-03-06T23:23:17.639Z,24.30
2023-03-06T23:25:46.008Z,24.00
2023-03-06T23:28:15.110Z,22.20
2023-03-06T23:30:44.130Z,22.10
2023-03-06T23:33:12.476Z,23.50
2023-03-06T23:35:40.907Z,22.00
2023-03-06T23:38:09.337Z,23.70
2023-03-06T23:40:38.952Z,21.90
2023-03-06T23:43:07.433Z,24.90
2023-03-06T23:45:35.812Z,26.20
2023-03-06T23:48:08.414Z,27.40
2023-03-06T23:50:40.442Z,21.50
2023-03-06T23:53:08.731Z,23.40
2023-03-06T23:55:41.671Z,25.10
2023-03-06T23:58:11.023Z,21.60
